ESOK/KSD METAR and TAF weather

Enter ICAO airport designator
Station Type Date Time Source
ESOK METAR 2019/10/21 04:50 UTC NOAA

ESOK 210450Z 35007KT 9999 BKN006 04/03 Q1018


Station Type Date Time Source
ESOK Decoded METAR 2019/10/21 04:50 UTC NOAA

Karlstad , Sweden (ESOK) 59-26-41N 013-20-15E
Oct 21, 2019 - 12:50 AM EDT / 2019.10.21 0450 UTC
Wind: from the N (350 degrees) at 8 MPH (7 KT):0
Visibility: greater than 7 mile(s):0
Sky conditions: mostly cloudy
Temperature: 39 F (4 C)
Dew Point: 37 F (3 C)
Relative Humidity: 93%
Pressure (altimeter): 30.06 in. Hg (1018 hPa)
ob: ESOK 210450Z 35007KT 9999 BKN006 04/03 Q1018
cycle: 5

Station Type Date Time Source
ESOK TAF 2017/05/22 06:33 UTC NOAA

TAF ESOK 220530Z 2206/2224 28006KT CAVOK

Example: see airport list